Time;durP1;ratioP1;P1;durP2;ratioP2;P2;SDS_P1;SDS_P2;PMS_P1;PMS_P2;Temp;Humidity;BMP_temperature;BMP_pressure;BME280_temperature;BME280_humidity;BME280_pressure;Samples;Min_cycle;Max_cycle;Signal;HPM_P1;HPM_P2
2022/10/07 00:00:00;;;;;;;15.18;10.35;;;26.40;99.90;;;;;;1594154;88;21189;-84
2022/10/07 00:02:23;;;;;;;14.30;8.23;;;26.40;99.90;;;;;;1638803;86;21657;-83
2022/10/07 00:04:58;;;;;;;14.98;9.53;;;26.50;99.90;;;;;;1627008;87;21245;-84
2022/10/07 00:07:29;;;;;;;13.70;7.92;;;26.50;99.90;;;;;;1626780;87;21350;-84
2022/10/07 00:10:00;;;;;;;11.48;7.47;;;26.50;99.90;;;;;;1641386;86;21700;-84
2022/10/07 00:12:32;;;;;;;16.30;9.18;;;26.60;99.90;;;;;;1633388;86;21928;-83
2022/10/07 00:15:04;;;;;;;12.35;8.70;;;26.60;99.90;;;;;;1659449;84;21292;-84
2022/10/07 00:17:36;;;;;;;15.43;9.08;;;26.70;99.90;;;;;;1712861;80;21312;-84
2022/10/07 00:20:08;;;;;;;13.60;9.40;;;26.70;99.90;;;;;;1769343;79;21629;-84
2022/10/07 00:22:40;;;;;;;11.33;8.13;;;26.70;99.90;;;;;;1769040;80;21661;-84
2022/10/07 00:25:13;;;;;;;11.00;7.22;;;26.80;99.90;;;;;;1769201;80;21965;-83
2022/10/07 00:27:44;;;;;;;13.13;7.92;;;26.80;99.90;;;;;;1743025;81;21735;-84
2022/10/07 00:30:16;;;;;;;10.38;7.67;;;26.80;99.90;;;;;;1807577;78;21807;-85
2022/10/07 00:32:47;;;;;;;12.50;7.47;;;26.80;99.90;;;;;;1782683;79;21677;-84
2022/10/07 00:35:18;;;;;;;11.20;7.85;;;26.90;99.90;;;;;;1822632;77;21126;-84
2022/10/07 00:37:50;;;;;;;11.80;8.28;;;26.90;99.90;;;;;;1829850;77;21171;-84
2022/10/07 00:40:22;;;;;;;9.63;6.90;;;26.90;99.90;;;;;;1876430;76;21684;-84
2022/10/07 00:42:52;;;;;;;11.08;6.37;;;26.90;99.90;;;;;;1878093;76;21123;-84
2022/10/07 00:45:23;;;;;;;10.23;6.40;;;27.00;99.90;;;;;;1864475;76;21064;-84
2022/10/07 00:47:54;;;;;;;10.38;5.95;;;27.00;99.90;;;;;;1862924;76;21138;-84
2022/10/07 00:50:28;;;;;;;9.78;6.37;;;27.00;99.90;;;;;;1869667;76;21264;-84
2022/10/07 00:53:02;;;;;;;9.50;6.12;;;27.00;99.90;;;;;;1860825;76;21134;-85
2022/10/07 00:55:34;;;;;;;7.60;5.37;;;27.00;99.90;;;;;;1855472;76;22145;-84
2022/10/07 00:58:08;;;;;;;11.53;5.95;;;27.10;99.90;;;;;;1877269;75;21074;-85
2022/10/07 01:00:39;;;;;;;8.05;5.25;;;27.10;99.90;;;;;;1868474;76;21130;-85
2022/10/07 01:03:10;;;;;;;8.48;5.65;;;27.10;99.90;;;;;;1862276;76;21177;-85
2022/10/07 01:05:42;;;;;;;8.75;6.05;;;27.20;99.90;;;;;;1823157;77;21137;-84
2022/10/07 01:08:14;;;;;;;10.63;6.00;;;27.20;99.90;;;;;;1819347;77;21213;-85
2022/10/07 01:10:47;;;;;;;12.07;6.35;;;27.20;99.90;;;;;;1846050;76;21166;-85
2022/10/07 01:13:20;;;;;;;7.65;6.12;;;27.30;99.90;;;;;;1839574;76;21678;-85
2022/10/07 01:16:00;;;;;;;8.88;5.37;;;27.40;99.90;;;;;;1860449;76;21166;-86
2022/10/07 01:18:33;;;;;;;9.60;6.12;;;27.40;99.90;;;;;;1857369;76;21377;-83
2022/10/07 01:21:06;;;;;;;9.65;5.62;;;27.40;99.90;;;;;;1858434;76;21563;-91
2022/10/07 01:23:39;;;;;;;7.20;4.58;;;27.50;99.90;;;;;;1861579;76;21142;-88
2022/10/07 01:26:18;;;;;;;7.72;4.62;;;27.50;99.90;;;;;;1831692;77;21098;-91
2022/10/07 01:28:51;;;;;;;8.45;4.78;;;27.60;99.90;;;;;;1782974;79;21615;-90
2022/10/07 01:31:25;;;;;;;6.75;4.83;;;27.60;99.90;;;;;;1777654;79;21644;-90
2022/10/07 01:34:12;;;;;;;7.33;4.90;;;27.70;99.90;;;;;;1805453;78;21584;-90
2022/10/07 01:36:38;;;;;;;6.33;4.22;;;27.70;99.90;;;;;;1813188;77;21178;-91
2022/10/07 01:39:18;;;;;;;7.50;4.72;;;27.70;99.90;;;;;;1821423;77;21182;-91
2022/10/07 01:41:50;;;;;;;6.28;4.30;;;27.70;99.90;;;;;;1856759;76;21172;-92
2022/10/07 01:44:38;;;;;;;7.28;4.65;;;27.80;99.90;;;;;;1826327;77;21162;-92
2022/10/07 01:47:16;;;;;;;5.35;3.70;;;27.80;99.90;;;;;;1845560;76;21571;-92
2022/10/07 01:49:53;;;;;;;7.25;4.47;;;27.90;99.90;;;;;;1870162;76;21119;-91
2022/10/07 01:52:32;;;;;;;5.55;3.67;;;27.90;99.90;;;;;;1848026;76;21146;-91
2022/10/07 01:55:07;;;;;;;4.92;4.15;;;28.00;99.90;;;;;;1850365;77;21257;-94
2022/10/07 01:57:39;;;;;;;8.23;3.87;;;28.10;99.70;;;;;;1839139;77;21155;-92
2022/10/07 02:00:14;;;;;;;6.40;4.45;;;28.10;99.90;;;;;;1810628;77;21163;-91
2022/10/07 02:02:47;;;;;;;5.37;4.28;;;28.20;99.90;;;;;;1786755;79;21631;-75
2022/10/07 02:05:20;;;;;;;15.03;5.10;;;28.30;99.80;;;;;;1837155;76;21593;-74
2022/10/07 02:07:52;;;;;;;12.53;4.17;;;28.30;99.90;;;;;;1818658;76;21154;-76
2022/10/07 02:10:25;;;;;;;12.28;4.83;;;28.40;99.20;;;;;;1884950;75;21500;-76
2022/10/07 02:12:58;;;;;;;8.18;4.08;;;28.50;98.90;;;;;;1860694;76;21317;-75
2022/10/07 02:15:31;;;;;;;15.63;4.37;;;28.50;98.90;;;;;;1836154;76;21322;-75
2022/10/07 02:18:22;;;;;;;16.60;4.53;;;28.50;98.70;;;;;;1873884;75;21649;-75
2022/10/07 02:20:55;;;;;;;6.83;4.25;;;28.50;98.80;;;;;;1825526;77;21654;-76
2022/10/07 02:23:27;;;;;;;17.52;5.53;;;28.60;98.60;;;;;;1833644;77;21176;-76
2022/10/07 02:25:59;;;;;;;21.23;5.25;;;28.70;98.20;;;;;;1836619;77;21106;-76
2022/10/07 02:28:31;;;;;;;6.85;4.45;;;28.70;98.30;;;;;;1837155;77;21781;-74
2022/10/07 02:31:05;;;;;;;4.40;3.15;;;28.80;98.60;;;;;;1825707;77;21670;-76
2022/10/07 02:33:37;;;;;;;3.98;2.90;;;28.80;98.00;;;;;;1832595;77;21156;-77
2022/10/07 02:36:11;;;;;;;7.00;3.37;;;28.90;98.00;;;;;;1839945;75;21223;-76
2022/10/07 02:38:42;;;;;;;5.58;3.70;;;29.10;98.20;;;;;;1844033;76;21203;-76
2022/10/07 02:41:13;;;;;;;5.40;3.08;;;29.10;98.20;;;;;;1847098;77;21252;-77
2022/10/07 02:43:47;;;;;;;5.80;2.80;;;29.30;97.20;;;;;;1794915;79;21693;-77
2022/10/07 02:46:21;;;;;;;5.92;2.85;;;29.30;96.90;;;;;;1853725;76;21207;-76
2022/10/07 02:48:57;;;;;;;6.25;3.05;;;29.40;96.00;;;;;;1775558;79;21236;-78
2022/10/07 02:51:32;;;;;;;4.55;2.58;;;29.40;95.70;;;;;;1802218;79;21222;-74
2022/10/07 02:54:04;;;;;;;3.77;2.60;;;29.40;95.80;;;;;;1762927;80;21571;-75
2022/10/07 02:56:37;;;;;;;6.12;2.55;;;29.50;96.10;;;;;;1810452;79;21125;-76
2022/10/07 02:59:10;;;;;;;4.15;2.40;;;29.50;95.80;;;;;;1790454;77;21159;-75
2022/10/07 03:01:45;;;;;;;4.17;2.30;;;29.60;95.80;;;;;;1788289;78;21104;-75
2022/10/07 03:04:17;;;;;;;4.12;2.52;;;29.60;95.70;;;;;;1800474;77;21679;-76
2022/10/07 03:06:49;;;;;;;3.87;2.35;;;29.70;95.60;;;;;;1800306;78;21557;-73
2022/10/07 03:09:20;;;;;;;5.12;2.62;;;29.80;95.40;;;;;;1829628;76;21212;-74
2022/10/07 03:11:53;;;;;;;4.53;2.55;;;29.90;95.50;;;;;;1841707;76;21227;-73
2022/10/07 03:14:24;;;;;;;4.40;2.58;;;30.00;95.60;;;;;;1805615;77;21193;-74
2022/10/07 03:16:55;;;;;;;3.72;2.55;;;30.10;95.00;;;;;;1776669;78;21190;-73
2022/10/07 03:19:26;;;;;;;4.42;2.30;;;30.20;95.20;;;;;;1816965;76;21182;-74
2022/10/07 03:21:56;;;;;;;3.25;2.42;;;30.40;94.60;;;;;;1832894;76;21438;-75
2022/10/07 03:24:27;;;;;;;5.33;2.50;;;30.50;94.30;;;;;;1868238;76;21159;-75
2022/10/07 03:26:58;;;;;;;3.75;2.12;;;30.60;94.10;;;;;;1867466;75;21107;-74
2022/10/07 03:29:31;;;;;;;4.50;2.42;;;30.60;94.00;;;;;;1865296;76;21245;-74
2022/10/07 03:32:01;;;;;;;3.22;2.30;;;30.80;94.20;;;;;;1865031;76;21604;-74
2022/10/07 03:34:32;;;;;;;3.27;2.15;;;30.80;94.00;;;;;;1861187;76;21182;-74
2022/10/07 03:37:03;;;;;;;4.60;2.27;;;30.80;93.80;;;;;;1811489;77;21150;-74
2022/10/07 03:39:34;;;;;;;4.12;2.05;;;30.80;93.90;;;;;;1795667;78;21612;-73
2022/10/07 03:42:05;;;;;;;5.25;2.45;;;30.90;93.90;;;;;;1847684;76;21162;-74
2022/10/07 03:44:37;;;;;;;4.80;2.10;;;30.90;93.50;;;;;;1864775;76;21634;-73
2022/10/07 03:47:07;;;;;;;5.28;2.25;;;31.00;93.60;;;;;;1871356;76;21164;-73
2022/10/07 03:49:40;;;;;;;6.60;2.20;;;30.90;93.80;;;;;;1849055;76;21154;-74
2022/10/07 03:52:11;;;;;;;5.10;2.00;;;30.80;93.80;;;;;;1866330;76;21138;-74
2022/10/07 03:54:42;;;;;;;3.25;2.00;;;30.80;93.90;;;;;;1853369;75;21136;-74
2022/10/07 03:59:45;;;;;;;5.53;2.55;;;30.90;93.60;;;;;;1865788;76;21940;-75
2022/10/07 04:02:16;;;;;;;4.47;2.08;;;31.00;93.40;;;;;;1861246;76;21126;-74
2022/10/07 04:04:48;;;;;;;4.67;1.77;;;31.10;93.30;;;;;;1862231;76;21127;-74
2022/10/07 04:07:20;;;;;;;6.28;2.50;;;31.20;93.10;;;;;;1865420;76;21104;-75
2022/10/07 04:09:52;;;;;;;3.35;1.92;;;31.30;92.80;;;;;;1858183;76;21152;-74
2022/10/07 04:12:23;;;;;;;3.17;2.00;;;31.50;92.50;;;;;;1872005;75;21156;-76
2022/10/07 04:14:54;;;;;;;4.28;1.57;;;31.60;92.50;;;;;;1858625;75;21185;-76
2022/10/07 04:17:25;;;;;;;6.30;2.20;;;31.70;92.30;;;;;;1866844;75;21173;-75
2022/10/07 04:19:57;;;;;;;4.40;2.05;;;31.70;92.20;;;;;;1846997;76;21150;-75
2022/10/07 04:22:29;;;;;;;5.45;2.35;;;31.70;92.20;;;;;;1840796;76;21134;-74
2022/10/07 04:27:32;;;;;;;2.90;1.67;;;31.50;92.50;;;;;;1862724;76;21692;-75
2022/10/07 04:30:05;;;;;;;3.87;2.00;;;31.40;92.40;;;;;;1823325;77;21124;-76
2022/10/07 04:32:36;;;;;;;4.40;2.35;;;31.40;92.60;;;;;;1839578;78;21123;-76
2022/10/07 04:35:09;;;;;;;4.75;1.95;;;31.50;92.60;;;;;;1843374;76;21094;-77
2022/10/07 04:37:40;;;;;;;4.58;2.08;;;31.60;92.30;;;;;;1827897;76;21633;-75
2022/10/07 04:40:13;;;;;;;4.42;2.22;;;31.80;92.50;;;;;;1847026;76;21554;-74
2022/10/07 04:45:16;;;;;;;4.37;2.30;;;31.80;91.90;;;;;;1834105;76;21118;-74
2022/10/07 04:47:47;;;;;;;3.25;1.87;;;31.80;92.20;;;;;;1847372;75;21199;-75
2022/10/07 04:50:18;;;;;;;4.75;1.95;;;31.60;92.20;;;;;;1832049;77;21865;-74
2022/10/07 04:52:50;;;;;;;3.12;1.70;;;31.50;92.20;;;;;;1837729;76;21170;-74
2022/10/07 04:55:21;;;;;;;3.90;2.08;;;31.50;92.30;;;;;;1808937;78;21522;-74
2022/10/07 04:57:52;;;;;;;5.00;2.00;;;31.50;92.30;;;;;;1762843;80;21161;-75
2022/10/07 05:00:24;;;;;;;2.98;1.95;;;31.60;91.70;;;;;;1809809;77;21220;-75
2022/10/07 05:02:55;;;;;;;3.20;2.02;;;31.50;91.90;;;;;;1836737;75;21143;-75
2022/10/07 05:05:26;;;;;;;5.05;2.12;;;31.40;92.20;;;;;;1839742;76;21654;-76
2022/10/07 05:07:57;;;;;;;3.30;2.22;;;31.40;92.30;;;;;;1845263;76;21574;-76
2022/10/07 05:10:30;;;;;;;2.45;1.82;;;31.40;92.40;;;;;;1822900;79;21158;-80
2022/10/07 05:13:00;;;;;;;5.47;2.27;;;31.60;91.60;;;;;;1838091;76;21111;-76
2022/10/07 05:15:31;;;;;;;5.08;2.45;;;31.60;91.50;;;;;;1783782;77;21252;-75
2022/10/07 05:18:02;;;;;;;3.75;2.30;;;31.60;91.60;;;;;;1757290;80;21095;-75
2022/10/07 05:20:34;;;;;;;4.85;2.45;;;31.50;91.90;;;;;;1840909;76;21220;-74
2022/10/07 05:23:04;;;;;;;4.55;2.70;;;31.50;92.10;;;;;;1799634;78;21311;-75
2022/10/07 05:25:35;;;;;;;4.22;1.98;;;31.60;92.00;;;;;;1762702;80;21261;-74
2022/10/07 05:28:06;;;;;;;4.75;2.35;;;31.80;92.00;;;;;;1761079;79;21609;-76
2022/10/07 05:30:37;;;;;;;6.00;2.50;;;31.90;91.50;;;;;;1778615;80;21579;-75
2022/10/07 05:33:09;;;;;;;5.78;2.20;;;32.10;91.80;;;;;;1796805;79;21161;-76
2022/10/07 05:35:41;;;;;;;3.77;1.92;;;32.10;91.50;;;;;;1839700;76;21634;-77
2022/10/07 05:38:12;;;;;;;3.98;1.92;;;32.20;91.30;;;;;;1831078;77;21591;-76
2022/10/07 05:40:43;;;;;;;4.67;2.25;;;32.20;91.10;;;;;;1836792;76;21260;-74
2022/10/07 05:43:13;;;;;;;6.55;3.02;;;32.30;91.00;;;;;;1842169;76;21137;-74
2022/10/07 05:45:46;;;;;;;3.80;2.10;;;32.20;91.20;;;;;;1790737;78;21185;-74
2022/10/07 05:48:16;;;;;;;4.60;2.02;;;32.20;91.20;;;;;;1785832;78;21185;-74
2022/10/07 05:50:48;;;;;;;6.50;2.00;;;32.20;91.40;;;;;;1799802;78;21129;-74
2022/10/07 05:53:18;;;;;;;3.37;1.90;;;32.30;91.00;;;;;;1811789;78;21139;-73
2022/10/07 05:55:50;;;;;;;5.28;1.82;;;32.30;90.80;;;;;;1805926;78;21673;-75
2022/10/07 05:58:22;;;;;;;2.65;1.65;;;32.40;90.70;;;;;;1791259;78;21208;-76
2022/10/07 06:00:55;;;;;;;3.00;1.80;;;32.40;90.40;;;;;;1795643;78;21239;-76
2022/10/07 06:03:28;;;;;;;3.65;2.08;;;32.40;90.90;;;;;;1789930;79;21196;-77
2022/10/07 06:05:59;;;;;;;3.35;1.98;;;32.40;90.60;;;;;;1789159;79;21189;-75
2022/10/07 06:08:30;;;;;;;3.27;1.60;;;32.30;90.70;;;;;;1794789;78;21256;-74
2022/10/07 06:13:37;;;;;;;4.33;2.22;;;32.10;90.90;;;;;;1826312;76;21162;-76
2022/10/07 06:16:09;;;;;;;6.53;2.50;;;32.20;90.70;;;;;;1829546;76;21197;-75
2022/10/07 06:18:40;;;;;;;3.77;2.20;;;32.30;90.80;;;;;;1845041;76;21738;-76
2022/10/07 06:21:12;;;;;;;5.10;2.20;;;32.40;91.00;;;;;;1840233;76;21659;-76
2022/10/07 06:23:43;;;;;;;4.87;2.12;;;32.40;90.60;;;;;;1855634;74;21205;-77
2022/10/07 06:26:14;;;;;;;3.62;1.92;;;32.50;90.30;;;;;;1851900;77;21067;-76
2022/10/07 06:28:44;;;;;;;4.03;2.08;;;32.50;90.50;;;;;;1863018;75;21087;-75
2022/10/07 06:31:23;;;;;;;4.42;1.95;;;32.30;90.70;;;;;;1876316;75;21597;-76
2022/10/07 06:33:51;;;;;;;3.10;2.20;;;32.20;90.70;;;;;;1808737;78;21519;-75
2022/10/07 06:36:23;;;;;;;4.85;1.90;;;32.20;90.50;;;;;;1840014;76;21192;-75
2022/10/07 06:38:55;;;;;;;4.42;1.92;;;32.20;90.80;;;;;;1835336;77;21074;-76
2022/10/07 06:41:26;;;;;;;4.17;2.15;;;32.30;91.10;;;;;;1800682;78;21524;-76
2022/10/07 06:43:56;;;;;;;2.92;1.90;;;32.30;91.20;;;;;;1860921;75;21123;-76
2022/10/07 06:46:27;;;;;;;3.77;2.30;;;32.30;90.90;;;;;;1869272;76;21784;-73
2022/10/07 06:48:58;;;;;;;3.35;2.12;;;32.20;91.20;;;;;;1862041;76;21513;-75
2022/10/07 06:51:29;;;;;;;2.77;1.87;;;32.20;91.30;;;;;;1865330;76;21107;-75
2022/10/07 06:54:00;;;;;;;3.15;1.95;;;32.10;91.10;;;;;;1871376;75;22015;-75
2022/10/07 06:56:31;;;;;;;6.28;2.17;;;32.10;91.40;;;;;;1870013;76;21209;-75
2022/10/07 06:59:02;;;;;;;6.20;2.50;;;32.10;91.30;;;;;;1832422;77;21669;-74
2022/10/07 07:01:33;;;;;;;4.72;2.30;;;32.00;91.40;;;;;;1835097;77;21124;-74
2022/10/07 07:04:04;;;;;;;3.52;2.08;;;31.90;91.60;;;;;;1850098;77;21185;-75
2022/10/07 07:06:37;;;;;;;4.03;2.10;;;32.00;91.30;;;;;;1873345;76;21122;-76
2022/10/07 07:09:07;;;;;;;3.55;1.92;;;32.00;91.20;;;;;;1853112;76;21153;-75
2022/10/07 07:11:42;;;;;;;4.28;2.62;;;31.90;91.50;;;;;;1846837;76;21150;-74
2022/10/07 07:14:13;;;;;;;4.85;2.15;;;31.80;91.80;;;;;;1827986;78;21098;-74
2022/10/07 07:16:44;;;;;;;6.25;2.30;;;31.60;91.70;;;;;;1840797;77;21687;-74
2022/10/07 07:19:15;;;;;;;4.08;1.92;;;31.50;92.00;;;;;;1859997;76;21213;-74
2022/10/07 07:21:46;;;;;;;4.28;2.05;;;31.50;91.90;;;;;;1879043;76;21126;-74
2022/10/07 07:24:19;;;;;;;3.62;2.12;;;31.40;92.00;;;;;;1872606;76;21162;-74
2022/10/07 07:26:50;;;;;;;3.20;2.00;;;31.40;91.70;;;;;;1857254;76;21708;-75
2022/10/07 07:29:21;;;;;;;3.52;2.15;;;31.50;91.80;;;;;;1861889;76;21150;-74
2022/10/07 07:31:52;;;;;;;4.60;2.02;;;31.50;92.00;;;;;;1866383;76;21114;-75
2022/10/07 07:34:24;;;;;;;3.77;2.00;;;31.70;92.40;;;;;;1871403;76;21661;-74
2022/10/07 07:36:54;;;;;;;3.02;2.00;;;31.70;91.40;;;;;;1883761;75;21201;-74
2022/10/07 07:39:25;;;;;;;3.30;2.00;;;31.80;91.50;;;;;;1857695;76;21146;-74
2022/10/07 07:41:56;;;;;;;4.70;2.08;;;31.90;91.30;;;;;;1873412;76;21609;-74
2022/10/07 07:44:28;;;;;;;3.65;1.90;;;31.90;91.30;;;;;;1881646;76;21195;-74
2022/10/07 07:47:03;;;;;;;4.00;1.87;;;31.90;91.20;;;;;;1879339;75;21670;-74
2022/10/07 07:49:34;;;;;;;3.40;1.98;;;32.00;91.10;;;;;;1857046;76;21705;-73
2022/10/07 07:52:06;;;;;;;4.35;2.05;;;32.00;91.10;;;;;;1867831;76;21640;-74
2022/10/07 07:54:38;;;;;;;5.12;1.92;;;32.00;91.20;;;;;;1853847;76;21648;-73
2022/10/07 07:57:10;;;;;;;3.83;1.85;;;32.00;91.30;;;;;;1870034;76;21177;-74
2022/10/07 07:59:40;;;;;;;4.03;2.25;;;32.00;91.20;;;;;;1875521;76;21095;-74
2022/10/07 08:02:12;;;;;;;3.92;1.87;;;32.00;91.20;;;;;;1860373;76;21548;-74
2022/10/07 08:04:43;;;;;;;7.62;5.40;;;31.90;90.80;;;;;;1859680;76;21162;-74
2022/10/07 08:07:14;;;;;;;3.98;2.10;;;31.80;91.10;;;;;;1856049;76;21260;-74
2022/10/07 08:09:45;;;;;;;3.77;2.00;;;31.80;91.10;;;;;;1857237;76;21169;-74
2022/10/07 08:12:16;;;;;;;4.28;2.20;;;31.70;91.50;;;;;;1861871;76;21114;-74
2022/10/07 08:14:47;;;;;;;3.65;1.80;;;31.70;91.30;;;;;;1862037;76;21220;-74
2022/10/07 08:17:18;;;;;;;3.55;1.80;;;31.80;91.40;;;;;;1860079;76;21169;-73
2022/10/07 08:19:49;;;;;;;2.92;1.87;;;31.80;91.50;;;;;;1846464;76;21134;-73
2022/10/07 08:22:19;;;;;;;2.98;2.05;;;31.90;91.00;;;;;;1854786;76;21204;-73
2022/10/07 08:24:50;;;;;;;5.22;2.15;;;31.90;91.00;;;;;;1858513;75;21157;-73
2022/10/07 08:27:21;;;;;;;3.72;2.00;;;31.80;90.90;;;;;;1820036;77;21309;-75
2022/10/07 08:29:51;;;;;;;3.00;1.80;;;31.80;91.00;;;;;;1839141;77;21555;-74
2022/10/07 08:32:22;;;;;;;3.30;2.10;;;31.80;91.00;;;;;;1834573;76;21138;-74
2022/10/07 08:34:53;;;;;;;4.08;2.30;;;31.60;91.20;;;;;;1804785;78;21204;-74
2022/10/07 08:37:24;;;;;;;4.28;2.30;;;31.60;91.30;;;;;;1833029;78;21736;-75
2022/10/07 08:39:59;;;;;;;4.17;1.95;;;31.50;91.60;;;;;;1831122;77;21598;-76
2022/10/07 08:42:27;;;;;;;5.50;2.40;;;31.50;91.40;;;;;;1824939;77;21159;-75
2022/10/07 08:45:01;;;;;;;3.80;2.12;;;31.50;91.60;;;;;;1827577;76;21181;-75
2022/10/07 08:47:34;;;;;;;4.65;2.20;;;31.50;92.30;;;;;;1849193;76;21080;-76
2022/10/07 08:50:08;;;;;;;4.83;2.02;;;31.50;92.10;;;;;;1832772;77;21818;-76
2022/10/07 08:52:43;;;;;;;4.05;2.00;;;31.50;92.10;;;;;;1827376;77;21098;-76
2022/10/07 08:55:14;;;;;;;4.40;2.20;;;31.60;92.10;;;;;;1840316;77;22086;-75
2022/10/07 08:57:48;;;;;;;6.28;1.67;;;31.60;92.20;;;;;;1840991;78;21759;-76
2022/10/07 09:00:21;;;;;;;3.10;1.92;;;31.70;92.00;;;;;;1834120;77;21217;-75
2022/10/07 09:02:54;;;;;;;4.00;2.37;;;31.70;92.10;;;;;;1830234;76;21523;-75
2022/10/07 09:05:28;;;;;;;5.60;2.47;;;31.60;92.00;;;;;;1864741;75;21543;-76
2022/10/07 09:08:01;;;;;;;5.87;2.10;;;31.50;92.10;;;;;;1839474;77;21224;-76
2022/10/07 09:10:34;;;;;;;4.85;1.90;;;31.50;92.20;;;;;;1832456;76;21118;-76
2022/10/07 09:13:07;;;;;;;5.80;2.42;;;31.50;92.30;;;;;;1844956;77;21080;-75
2022/10/07 09:15:39;;;;;;;4.58;2.50;;;31.40;92.00;;;;;;1820145;78;21256;-76
2022/10/07 09:18:13;;;;;;;6.40;2.42;;;31.40;91.90;;;;;;1833751;76;21583;-77
2022/10/07 09:20:46;;;;;;;6.75;2.20;;;31.40;92.00;;;;;;1833598;77;21615;-76
2022/10/07 09:23:18;;;;;;;7.40;2.42;;;31.40;92.00;;;;;;1816872;77;21045;-76
2022/10/07 09:25:49;;;;;;;7.67;1.95;;;31.40;92.70;;;;;;1810234;76;21143;-76
2022/10/07 09:28:22;;;;;;;4.05;1.95;;;31.20;92.50;;;;;;1786809;80;21115;-77
2022/10/07 09:30:54;;;;;;;3.02;1.42;;;31.20;93.70;;;;;;1777223;79;21205;-76
2022/10/07 09:33:28;;;;;;;3.12;1.50;;;31.10;93.30;;;;;;1784728;79;21682;-76
2022/10/07 09:36:01;;;;;;;2.70;1.50;;;30.90;93.20;;;;;;1782508;80;21633;-76
2022/10/07 09:38:33;;;;;;;2.95;1.92;;;30.80;93.90;;;;;;1769712;79;21953;-76
2022/10/07 09:41:15;;;;;;;4.87;1.85;;;30.70;94.10;;;;;;1782276;80;21103;-75
2022/10/07 09:43:41;;;;;;;3.70;2.02;;;30.60;94.10;;;;;;1782929;80;21182;-76
2022/10/07 09:46:14;;;;;;;3.02;1.90;;;30.60;94.10;;;;;;1793796;78;21202;-76
2022/10/07 09:48:52;;;;;;;2.02;1.40;;;30.50;94.00;;;;;;1779626;78;21114;-77
2022/10/07 09:51:25;;;;;;;2.67;1.35;;;30.50;94.10;;;;;;1783591;80;21155;-76
2022/10/07 09:53:57;;;;;;;5.28;2.02;;;30.50;93.70;;;;;;1785287;79;21113;-74
2022/10/07 09:56:31;;;;;;;5.15;1.90;;;30.50;93.80;;;;;;1775678;78;21649;-75
2022/10/07 09:59:05;;;;;;;3.98;1.67;;;30.40;93.70;;;;;;1795194;78;21696;-75
2022/10/07 10:01:40;;;;;;;3.15;1.87;;;30.40;94.10;;;;;;1786060;78;21199;-77
2022/10/07 10:04:14;;;;;;;4.42;1.80;;;30.40;94.30;;;;;;1789573;78;21154;-77
2022/10/07 10:06:48;;;;;;;3.83;1.80;;;30.40;94.40;;;;;;1785669;78;21096;-77
2022/10/07 10:09:23;;;;;;;4.60;2.08;;;30.40;94.50;;;;;;1792370;78;22203;-76
2022/10/07 10:11:56;;;;;;;2.92;1.80;;;30.40;94.40;;;;;;1814922;78;21152;-76
2022/10/07 10:14:30;;;;;;;3.45;1.70;;;30.40;94.40;;;;;;1799685;78;21157;-75
2022/10/07 10:17:02;;;;;;;3.70;2.10;;;30.30;94.40;;;;;;1785379;80;21637;-76
2022/10/07 10:19:36;;;;;;;5.25;2.27;;;30.40;94.50;;;;;;1786870;80;21282;-76
2022/10/07 10:22:08;;;;;;;4.67;2.22;;;30.40;94.70;;;;;;1793794;78;21676;-75
2022/10/07 10:27:14;;;;;;;4.53;2.45;;;30.40;94.90;;;;;;1779012;80;21163;-76
2022/10/07 10:29:46;;;;;;;3.75;1.95;;;30.40;95.00;;;;;;1816744;77;21154;-76
2022/10/07 10:32:20;;;;;;;4.95;2.55;;;30.40;95.00;;;;;;1814403;77;21093;-76
2022/10/07 10:34:51;;;;;;;5.42;2.75;;;30.30;95.00;;;;;;1760946;79;21083;-75
2022/10/07 10:37:23;;;;;;;5.17;2.52;;;30.30;95.00;;;;;;1817393;77;21539;-78
2022/10/07 10:39:56;;;;;;;4.75;2.58;;;30.40;95.10;;;;;;1801640;79;21803;-77
2022/10/07 10:42:37;;;;;;;8.93;2.75;;;30.40;95.20;;;;;;1823708;77;21248;-74
2022/10/07 10:45:08;;;;;;;4.10;2.47;;;30.30;95.20;;;;;;1807819;79;21103;-76
2022/10/07 10:47:41;;;;;;;6.45;2.75;;;30.30;95.30;;;;;;1813721;77;21159;-76
2022/10/07 10:50:14;;;;;;;5.87;3.50;;;30.30;95.50;;;;;;1789654;79;21178;-77
2022/10/07 10:52:48;;;;;;;6.12;2.90;;;30.30;95.60;;;;;;1819101;78;21481;-77
2022/10/07 10:55:20;;;;;;;6.10;3.17;;;30.30;95.60;;;;;;1825117;76;21119;-76
2022/10/07 10:57:54;;;;;;;8.20;3.10;;;30.30;95.60;;;;;;1817531;77;21198;-75
2022/10/07 11:00:29;;;;;;;4.92;2.85;;;30.30;95.50;;;;;;1820711;77;21175;-74
2022/10/07 11:03:02;;;;;;;4.60;2.45;;;30.30;95.50;;;;;;1817939;77;21653;-75
2022/10/07 11:05:33;;;;;;;5.12;2.87;;;30.30;95.50;;;;;;1829592;77;21276;-75
2022/10/07 11:08:07;;;;;;;4.85;3.12;;;30.30;95.50;;;;;;1830720;77;21222;-77
2022/10/07 11:10:40;;;;;;;4.45;3.00;;;30.30;95.50;;;;;;1827987;77;21254;-76
2022/10/07 11:13:14;;;;;;;6.75;3.60;;;30.30;95.60;;;;;;1820174;77;21657;-75
2022/10/07 11:15:47;;;;;;;5.40;3.58;;;30.30;95.60;;;;;;1819233;77;21634;-76
2022/10/07 11:18:20;;;;;;;8.88;3.70;;;30.20;95.60;;;;;;1818700;77;21182;-76
2022/10/07 11:20:52;;;;;;;5.45;3.58;;;30.20;95.70;;;;;;1824611;77;22517;-76
2022/10/07 11:23:25;;;;;;;7.05;2.80;;;30.20;95.60;;;;;;1825848;77;21086;-75
2022/10/07 11:25:59;;;;;;;5.92;2.80;;;30.20;95.10;;;;;;1818359;78;21575;-75
2022/10/07 11:28:33;;;;;;;5.28;2.60;;;30.20;95.40;;;;;;1832951;77;21601;-75
2022/10/07 11:31:06;;;;;;;5.72;3.40;;;30.10;94.70;;;;;;1831961;77;21243;-74
2022/10/07 11:33:43;;;;;;;5.80;3.62;;;30.10;94.50;;;;;;1807696;79;21163;-74
2022/10/07 11:36:15;;;;;;;6.12;3.50;;;30.10;94.40;;;;;;1792969;76;21602;-75
2022/10/07 11:38:46;;;;;;;6.12;3.33;;;30.10;94.50;;;;;;1803664;77;21147;-76
2022/10/07 11:41:19;;;;;;;5.65;3.55;;;30.10;94.70;;;;;;1833582;77;21248;-76
2022/10/07 11:43:55;;;;;;;6.10;4.30;;;30.10;94.90;;;;;;1826172;77;21134;-76
2022/10/07 11:46:28;;;;;;;7.45;4.10;;;30.10;95.40;;;;;;1837516;77;21551;-76
2022/10/07 11:49:02;;;;;;;10.13;3.70;;;30.10;95.10;;;;;;1824082;76;21547;-75
2022/10/07 11:51:36;;;;;;;6.12;3.67;;;30.00;96.00;;;;;;1806046;78;21772;-75
2022/10/07 11:54:10;;;;;;;7.58;4.12;;;30.00;96.60;;;;;;1813301;77;21562;-76
2022/10/07 11:56:43;;;;;;;8.68;4.28;;;30.00;96.70;;;;;;1822567;77;21880;-75
2022/10/07 11:59:18;;;;;;;5.92;3.60;;;29.90;97.00;;;;;;1827004;77;21563;-76
2022/10/07 12:01:51;;;;;;;5.78;3.70;;;29.90;97.50;;;;;;1821618;77;21755;-75
2022/10/07 12:04:23;;;;;;;6.42;3.33;;;29.80;97.60;;;;;;1794568;79;21201;-75
2022/10/07 12:06:58;;;;;;;5.58;3.27;;;29.80;97.60;;;;;;1818407;77;21079;-74
2022/10/07 12:09:31;;;;;;;5.83;3.37;;;29.80;97.70;;;;;;1824677;76;21115;-74
2022/10/07 12:12:02;;;;;;;5.20;3.08;;;29.70;97.80;;;;;;1822092;77;21099;-75
2022/10/07 12:14:36;;;;;;;6.33;3.40;;;29.70;97.80;;;;;;1822122;77;21618;-75
2022/10/07 12:17:09;;;;;;;6.78;3.27;;;29.70;97.80;;;;;;1825238;77;21150;-76
2022/10/07 12:19:40;;;;;;;5.75;3.22;;;29.70;97.90;;;;;;1822167;77;21618;-75
2022/10/07 12:22:12;;;;;;;7.83;2.90;;;29.60;97.90;;;;;;1823321;77;21158;-75
2022/10/07 12:24:45;;;;;;;5.20;3.05;;;29.60;97.90;;;;;;1801675;78;21732;-75
2022/10/07 12:27:17;;;;;;;7.28;3.20;;;29.60;98.00;;;;;;1850757;75;21177;-76
2022/10/07 12:29:49;;;;;;;8.50;3.52;;;29.60;98.00;;;;;;1862646;75;21227;-76
2022/10/07 12:32:23;;;;;;;5.62;3.42;;;29.60;98.00;;;;;;1860806;75;21998;-76
2022/10/07 12:34:54;;;;;;;7.67;3.98;;;29.60;98.00;;;;;;1846524;76;22356;-76
2022/10/07 12:37:28;;;;;;;8.73;3.50;;;29.60;98.30;;;;;;1857552;75;21165;-76
2022/10/07 12:40:00;;;;;;;7.55;3.98;;;29.60;98.60;;;;;;1845260;76;21650;-76
2022/10/07 12:42:32;;;;;;;5.85;2.25;;;29.60;98.30;;;;;;1844015;76;21126;-75
2022/10/07 12:45:06;;;;;;;3.12;1.72;;;29.50;95.80;;;;;;1861791;75;21892;-75
2022/10/07 12:47:39;;;;;;;4.42;1.65;;;29.40;94.90;;;;;;1857040;75;21684;-75
2022/10/07 12:50:12;;;;;;;4.70;1.30;;;29.30;94.20;;;;;;1860667;76;21079;-75
2022/10/07 12:52:45;;;;;;;11.38;2.80;;;29.10;94.40;;;;;;1865354;75;21201;-75
2022/10/07 12:55:18;;;;;;;8.63;2.22;;;29.00;96.60;;;;;;1847778;76;21406;-75
2022/10/07 12:57:53;;;;;;;4.03;1.40;;;28.80;97.20;;;;;;1847505;76;21165;-76
2022/10/07 13:00:25;;;;;;;3.67;1.00;;;28.40;97.50;;;;;;1866038;75;21661;-78
2022/10/07 13:02:58;;;;;;;2.08;0.88;;;28.20;97.80;;;;;;1844998;76;21139;-76
2022/10/07 13:05:32;;;;;;;2.33;1.00;;;28.00;97.80;;;;;;1859258;75;21610;-86
2022/10/07 13:08:06;;;;;;;6.28;1.15;;;27.80;98.20;;;;;;1860024;77;21245;-85
2022/10/07 13:10:39;;;;;;;5.17;0.80;;;27.70;98.30;;;;;;1846262;76;21088;-84
2022/10/07 13:13:12;;;;;;;4.53;1.37;;;27.70;98.50;;;;;;1848606;76;21158;-84
2022/10/07 13:15:45;;;;;;;2.95;1.00;;;27.60;98.60;;;;;;1861071;75;21142;-84
2022/10/07 13:18:19;;;;;;;5.35;1.55;;;27.50;98.80;;;;;;1861282;75;21189;-84
2022/10/07 13:20:52;;;;;;;2.58;1.30;;;27.50;98.90;;;;;;1867520;76;21171;-85
2022/10/07 13:23:23;;;;;;;4.10;1.22;;;27.40;99.30;;;;;;1867961;76;21201;-85